Time;durP1;ratioP1;P1;durP2;ratioP2;P2;SDS_P1;SDS_P2;PMS_P1;PMS_P2;Temp;Humidity;BMP_temperature;BMP_pressure;BME280_temperature;BME280_humidity;BME280_pressure;Samples;Min_cycle;Max_cycle;Signal;HPM_P1;HPM_P2
2022/09/01 00:01:38;;;;;;;8.27;7.07;;;16.60;95.10;;;;;;5090951;28;20178;-60
2022/09/01 00:04:04;;;;;;;8.17;7.40;;;16.50;95.00;;;;;;5092352;28;20182;-60
2022/09/01 00:06:32;;;;;;;10.07;7.80;;;16.40;94.80;;;;;;5077819;28;20193;-60
2022/09/01 00:09:03;;;;;;;9.47;8.47;;;16.40;95.20;;;;;;5101363;28;20280;-60
2022/09/01 00:11:30;;;;;;;11.27;8.40;;;16.50;95.10;;;;;;5089362;28;20272;-60
2022/09/01 00:13:57;;;;;;;11.47;9.57;;;16.50;95.20;;;;;;5094853;28;20197;-60
2022/09/01 00:16:23;;;;;;;12.63;9.40;;;16.50;95.30;;;;;;5069738;28;20181;-60
2022/09/01 00:18:51;;;;;;;14.07;10.60;;;16.60;95.40;;;;;;5093626;28;20192;-60
2022/09/01 00:21:22;;;;;;;10.47;9.47;;;16.60;95.40;;;;;;5092695;28;20268;-60
2022/09/01 00:23:48;;;;;;;15.63;11.83;;;16.60;95.50;;;;;;5093456;28;20266;-60
2022/09/01 00:26:14;;;;;;;12.47;11.07;;;16.70;95.60;;;;;;5077780;28;20185;-60
2022/09/01 00:28:40;;;;;;;15.30;11.43;;;16.70;95.60;;;;;;5082448;28;20232;-60
2022/09/01 00:31:07;;;;;;;14.33;11.73;;;16.70;95.60;;;;;;5058177;28;20182;-60
2022/09/01 00:33:34;;;;;;;14.50;12.83;;;16.70;95.60;;;;;;5054886;28;20294;-60
2022/09/01 00:36:00;;;;;;;10.93;9.83;;;16.70;95.60;;;;;;5055769;28;20184;-60
2022/09/01 00:38:26;;;;;;;8.80;7.90;;;16.60;95.30;;;;;;5075818;28;20186;-60
2022/09/01 00:40:52;;;;;;;8.63;7.17;;;16.50;95.20;;;;;;5068338;28;20242;-60
2022/09/01 00:43:35;;;;;;;7.80;7.10;;;16.50;95.20;;;;;;5086099;28;20177;-60
2022/09/01 00:46:06;;;;;;;7.77;6.93;;;16.40;95.10;;;;;;5074755;28;20177;-60
2022/09/01 00:48:32;;;;;;;10.57;7.93;;;16.40;95.10;;;;;;5059345;28;20191;-60
2022/09/01 00:50:59;;;;;;;9.63;8.27;;;16.40;95.10;;;;;;5058578;28;20243;-60
2022/09/01 00:53:25;;;;;;;13.83;9.17;;;16.40;95.20;;;;;;5072868;28;20192;-60
2022/09/01 00:55:50;;;;;;;10.60;9.57;;;16.40;95.20;;;;;;5042293;28;20178;-60
2022/09/01 00:58:16;;;;;;;13.43;10.20;;;16.50;95.30;;;;;;5041711;28;20185;-60
2022/09/01 01:00:44;;;;;;;12.80;10.13;;;16.50;95.40;;;;;;5065280;28;20185;-60
2022/09/01 01:03:10;;;;;;;11.80;10.60;;;16.50;95.50;;;;;;5080662;28;20183;-60
2022/09/01 01:05:52;;;;;;;10.90;9.90;;;16.50;95.50;;;;;;5075994;28;20185;-60
2022/09/01 01:08:26;;;;;;;11.40;10.30;;;16.50;95.40;;;;;;5072751;28;20181;-60
2022/09/01 01:10:52;;;;;;;11.67;10.43;;;16.50;95.40;;;;;;5076480;28;20182;-60
2022/09/01 01:13:19;;;;;;;10.83;9.83;;;16.50;95.40;;;;;;5058727;28;20185;-60
2022/09/01 01:15:45;;;;;;;12.50;10.73;;;16.50;95.40;;;;;;5043223;28;20215;-60
2022/09/01 01:18:12;;;;;;;11.87;10.47;;;16.50;95.40;;;;;;5059227;28;20190;-60
2022/09/01 01:23:40;;;;;;;11.33;10.30;;;16.50;95.40;;;;;;5078332;28;20200;-60
2022/09/01 01:26:09;;;;;;;11.13;10.13;;;16.40;95.30;;;;;;5075343;28;20178;-60
2022/09/01 01:28:40;;;;;;;13.10;10.37;;;16.40;95.30;;;;;;5087562;28;20236;-60
2022/09/01 01:31:11;;;;;;;11.13;10.13;;;16.50;95.50;;;;;;5094516;28;20182;-60
2022/09/01 01:33:55;;;;;;;7.53;6.87;;;16.50;95.50;;;;;;5095213;28;20185;-60
2022/09/01 01:36:31;;;;;;;7.03;6.43;;;16.40;95.20;;;;;;5082365;28;20574;-60
2022/09/01 01:39:02;;;;;;;6.77;6.13;;;16.30;95.20;;;;;;5082777;28;20188;-60
2022/09/01 01:41:30;;;;;;;7.83;7.03;;;16.30;95.00;;;;;;5095462;28;20267;-60
2022/09/01 01:43:58;;;;;;;7.43;6.83;;;16.30;95.00;;;;;;5094821;28;20278;-60
2022/09/01 01:46:25;;;;;;;8.57;6.83;;;16.30;95.10;;;;;;5079350;28;20188;-60
2022/09/01 01:48:52;;;;;;;7.20;6.60;;;16.30;95.10;;;;;;5078962;28;20192;-60
2022/09/01 01:51:20;;;;;;;6.63;6.03;;;16.30;95.20;;;;;;5095705;28;20191;-60
2022/09/01 01:53:46;;;;;;;6.93;6.33;;;16.30;95.20;;;;;;5091925;28;20208;-60
2022/09/01 01:56:13;;;;;;;7.83;6.93;;;16.30;95.20;;;;;;5090587;28;20185;-60
2022/09/01 01:58:39;;;;;;;9.63;7.07;;;16.30;95.20;;;;;;5085365;28;20188;-60
2022/09/01 02:01:08;;;;;;;9.00;7.13;;;16.30;95.10;;;;;;5081969;28;20174;-60
2022/09/01 02:03:37;;;;;;;7.97;6.70;;;16.20;95.20;;;;;;5077990;28;20177;-60
2022/09/01 02:06:07;;;;;;;6.83;6.23;;;16.30;95.10;;;;;;5080682;28;20177;-60
2022/09/01 02:08:34;;;;;;;8.40;7.00;;;16.20;95.20;;;;;;5099059;28;20183;-60
2022/09/01 02:11:01;;;;;;;7.03;6.43;;;16.20;95.10;;;;;;5098416;28;20185;-60
2022/09/01 02:13:29;;;;;;;7.60;6.53;;;16.20;95.20;;;;;;5099145;28;20181;-60
2022/09/01 02:16:00;;;;;;;8.20;7.50;;;16.20;95.30;;;;;;5070000;28;20173;-60
2022/09/01 02:18:32;;;;;;;6.20;5.70;;;16.20;95.30;;;;;;5089948;28;20263;-60
2022/09/01 02:20:59;;;;;;;7.33;6.50;;;16.20;95.20;;;;;;5097517;28;20295;-60
2022/09/01 02:23:26;;;;;;;6.70;6.10;;;16.20;95.30;;;;;;5082527;28;20199;-60
2022/09/01 02:25:59;;;;;;;6.53;6.03;;;16.20;95.30;;;;;;5082065;28;20184;-60
2022/09/01 02:28:26;;;;;;;11.57;7.17;;;16.10;95.10;;;;;;5087786;28;20232;-60
2022/09/01 02:30:53;;;;;;;7.57;6.73;;;16.20;95.30;;;;;;5098295;28;20180;-60
2022/09/01 02:33:21;;;;;;;9.40;7.47;;;16.20;95.30;;;;;;5083175;28;20185;-60
2022/09/01 02:35:55;;;;;;;8.57;6.47;;;16.20;95.20;;;;;;5082197;28;20208;-60
2022/09/01 02:38:24;;;;;;;7.70;6.90;;;16.10;95.20;;;;;;5090545;28;20187;-60
2022/09/01 02:40:52;;;;;;;7.60;6.23;;;16.20;95.30;;;;;;5090395;28;20193;-60
2022/09/01 02:43:19;;;;;;;10.53;7.10;;;16.10;95.20;;;;;;5120790;27;20207;-60
2022/09/01 02:45:54;;;;;;;8.33;7.10;;;16.10;95.20;;;;;;5098637;28;20185;-60
2022/09/01 02:48:36;;;;;;;7.17;6.37;;;16.10;95.30;;;;;;5101473;27;20186;-60
2022/09/01 02:51:14;;;;;;;7.67;6.87;;;16.10;95.30;;;;;;5088806;28;20184;-60
2022/09/01 02:53:41;;;;;;;7.80;6.63;;;16.10;95.40;;;;;;5098430;27;20203;-60
2022/09/01 02:56:13;;;;;;;7.57;6.30;;;16.10;95.30;;;;;;5103673;28;20259;-60
2022/09/01 02:58:46;;;;;;;7.20;6.50;;;16.10;95.30;;;;;;5087872;27;20229;-60
2022/09/01 03:01:25;;;;;;;7.10;6.40;;;16.10;95.20;;;;;;5115685;27;20180;-60
2022/09/01 03:03:54;;;;;;;7.60;6.90;;;16.10;95.30;;;;;;5101897;27;20182;-60
2022/09/01 03:06:22;;;;;;;17.53;6.67;;;16.10;95.20;;;;;;5111073;27;20184;-60
2022/09/01 03:08:53;;;;;;;10.00;6.23;;;16.10;95.20;;;;;;5097707;28;20271;-60
2022/09/01 03:11:20;;;;;;;7.93;6.60;;;16.00;95.20;;;;;;5083114;27;20283;-60
2022/09/01 03:13:46;;;;;;;6.73;6.10;;;16.10;95.20;;;;;;5098252;28;20200;-60
2022/09/01 03:16:12;;;;;;;7.83;7.13;;;16.00;95.20;;;;;;5064575;28;20184;-60
2022/09/01 03:18:38;;;;;;;6.83;6.30;;;16.00;95.20;;;;;;5088774;28;20227;-60
2022/09/01 03:21:07;;;;;;;8.83;6.03;;;16.00;95.20;;;;;;5068469;28;20173;-60
2022/09/01 03:23:33;;;;;;;6.33;5.73;;;16.00;95.20;;;;;;5071968;28;20195;-60
2022/09/01 03:26:00;;;;;;;7.00;6.40;;;16.00;95.20;;;;;;5060953;28;20176;-60
2022/09/01 03:28:26;;;;;;;6.67;5.77;;;16.00;95.20;;;;;;5076890;28;20228;-60
2022/09/01 03:30:55;;;;;;;9.83;7.27;;;16.00;95.20;;;;;;5060376;28;20185;-60
2022/09/01 03:33:24;;;;;;;6.50;5.90;;;15.90;95.10;;;;;;5076574;28;20189;-60
2022/09/01 03:35:50;;;;;;;9.00;6.33;;;16.00;95.20;;;;;;5076266;28;20228;-60
2022/09/01 03:38:19;;;;;;;8.30;6.50;;;15.90;95.10;;;;;;5075513;28;20205;-60
2022/09/01 03:40:46;;;;;;;7.70;6.90;;;15.90;95.20;;;;;;5062279;28;20235;-60
2022/09/01 03:43:15;;;;;;;6.73;6.13;;;15.90;95.10;;;;;;5052095;28;20185;-60
2022/09/01 03:45:42;;;;;;;9.30;6.70;;;15.90;95.10;;;;;;5044312;28;20189;-60
2022/09/01 03:48:09;;;;;;;7.93;6.20;;;15.90;95.10;;;;;;5077161;28;20226;-60
2022/09/01 03:50:44;;;;;;;7.43;6.73;;;15.80;95.10;;;;;;5075957;28;20247;-60
2022/09/01 03:53:16;;;;;;;6.30;5.70;;;15.80;95.20;;;;;;5075769;28;20187;-60
2022/09/01 03:55:44;;;;;;;8.53;7.27;;;15.90;95.20;;;;;;5076387;28;20197;-60
2022/09/01 03:58:11;;;;;;;7.40;6.53;;;15.80;95.10;;;;;;5073580;28;20272;-60
2022/09/01 04:00:41;;;;;;;6.93;6.33;;;15.80;95.00;;;;;;5060389;28;20177;-60
2022/09/01 04:03:09;;;;;;;7.80;7.10;;;15.80;95.00;;;;;;5083564;28;20170;-60
2022/09/01 04:05:36;;;;;;;7.23;6.53;;;15.80;95.00;;;;;;5076509;28;20181;-60
2022/09/01 04:08:05;;;;;;;7.37;6.67;;;15.80;95.00;;;;;;5056899;28;20201;-60
2022/09/01 04:10:33;;;;;;;8.67;7.00;;;15.80;95.00;;;;;;5070076;28;20194;-60
2022/09/01 04:12:59;;;;;;;7.70;6.77;;;15.80;95.10;;;;;;5069470;28;20181;-60
2022/09/01 04:15:26;;;;;;;7.73;6.80;;;15.70;95.10;;;;;;5076152;28;20228;-60
2022/09/01 04:18:18;;;;;;;12.37;7.70;;;15.70;95.10;;;;;;5076340;28;20182;-60
2022/09/01 04:20:49;;;;;;;10.17;7.47;;;15.70;95.10;;;;;;5075175;28;20190;-60
2022/09/01 04:23:33;;;;;;;7.60;6.90;;;15.70;95.10;;;;;;5059999;28;20188;-60
2022/09/01 04:26:13;;;;;;;8.10;7.30;;;15.70;95.10;;;;;;5074612;28;20177;-60
2022/09/01 04:28:49;;;;;;;7.20;6.60;;;15.60;94.90;;;;;;5077981;28;20698;-61
2022/09/01 04:31:20;;;;;;;11.70;7.70;;;15.60;94.70;;;;;;5080495;28;20191;-60
2022/09/01 04:33:51;;;;;;;7.40;6.80;;;15.60;94.70;;;;;;5075820;28;20181;-60
2022/09/01 04:36:32;;;;;;;8.57;7.87;;;15.60;94.50;;;;;;5074604;28;20178;-60
2022/09/01 04:39:01;;;;;;;8.30;7.60;;;15.50;94.80;;;;;;5073370;28;20174;-60
2022/09/01 04:41:32;;;;;;;8.13;7.43;;;15.50;94.70;;;;;;5078444;28;20224;-60
2022/09/01 04:44:03;;;;;;;7.30;6.60;;;15.50;94.60;;;;;;5077177;28;20193;-60
2022/09/01 04:46:32;;;;;;;6.67;6.03;;;15.40;94.60;;;;;;5058822;28;20192;-61
2022/09/01 04:48:58;;;;;;;7.67;6.97;;;15.30;94.40;;;;;;5081997;28;20181;-61
2022/09/01 04:51:26;;;;;;;7.73;7.10;;;15.40;94.30;;;;;;5063188;28;20200;-60
2022/09/01 04:53:54;;;;;;;7.23;6.63;;;15.30;94.20;;;;;;5056500;28;20286;-61
2022/09/01 04:56:21;;;;;;;8.30;7.10;;;15.30;94.30;;;;;;5053419;28;20196;-60
2022/09/01 04:58:48;;;;;;;8.70;7.90;;;15.20;94.30;;;;;;5076548;28;20213;-61
2022/09/01 05:01:25;;;;;;;8.00;7.27;;;15.30;94.60;;;;;;5079446;28;20228;-61
2022/09/01 05:04:00;;;;;;;9.67;8.30;;;15.20;94.50;;;;;;5076763;28;20185;-60
2022/09/01 05:06:27;;;;;;;8.83;8.03;;;15.30;94.70;;;;;;5058107;28;20219;-61
2022/09/01 05:08:56;;;;;;;8.47;7.57;;;15.30;94.70;;;;;;5063292;28;20180;-61
2022/09/01 05:11:22;;;;;;;8.67;7.87;;;15.30;94.60;;;;;;5047366;28;20258;-61
2022/09/01 05:13:49;;;;;;;7.57;6.93;;;15.30;94.40;;;;;;5078237;28;20181;-61
2022/09/01 05:16:20;;;;;;;9.50;8.50;;;15.30;94.40;;;;;;5075859;28;20234;-61
2022/09/01 05:18:48;;;;;;;7.67;6.90;;;15.20;94.40;;;;;;5075884;28;20200;-61
2022/09/01 05:21:23;;;;;;;9.90;7.90;;;15.20;94.40;;;;;;5081310;28;20268;-61
2022/09/01 05:23:50;;;;;;;9.03;8.23;;;15.20;94.60;;;;;;5092909;28;20182;-61
2022/09/01 05:26:20;;;;;;;9.50;8.60;;;15.10;94.70;;;;;;5080368;28;20174;-61
2022/09/01 05:28:48;;;;;;;9.10;8.33;;;15.20;94.70;;;;;;5078975;28;20197;-61
2022/09/01 05:31:18;;;;;;;8.93;8.03;;;15.20;94.70;;;;;;5087745;28;20235;-61
2022/09/01 05:33:47;;;;;;;7.90;7.20;;;15.20;94.70;;;;;;5059587;28;20212;-62
2022/09/01 05:36:16;;;;;;;8.50;7.90;;;15.30;94.70;;;;;;5069759;28;20193;-62
2022/09/01 05:38:43;;;;;;;10.37;8.03;;;15.30;94.70;;;;;;5083617;28;20186;-62
2022/09/01 05:41:13;;;;;;;8.43;7.30;;;15.20;94.60;;;;;;5087444;28;20173;-61
2022/09/01 05:43:45;;;;;;;9.43;8.60;;;15.20;94.70;;;;;;5091039;28;20182;-60
2022/09/01 05:46:16;;;;;;;9.27;8.47;;;15.20;94.70;;;;;;5067987;28;20197;-61
2022/09/01 05:48:43;;;;;;;9.73;8.80;;;15.30;94.90;;;;;;5092572;28;20269;-61
2022/09/01 05:51:10;;;;;;;11.57;8.97;;;15.30;95.00;;;;;;5079413;28;20186;-61
2022/09/01 05:53:36;;;;;;;9.53;8.63;;;15.30;94.90;;;;;;5063464;28;20194;-61
2022/09/01 05:56:08;;;;;;;9.67;8.70;;;15.40;95.00;;;;;;5069112;28;20189;-61
2022/09/01 05:58:35;;;;;;;9.57;8.67;;;15.40;95.00;;;;;;5093015;28;20177;-61
2022/09/01 06:01:01;;;;;;;10.10;9.10;;;15.40;95.10;;;;;;5075903;28;20189;-61
2022/09/01 06:03:27;;;;;;;8.43;7.73;;;15.50;95.10;;;;;;5078728;28;20251;-61
2022/09/01 06:05:54;;;;;;;9.97;8.93;;;15.40;95.00;;;;;;5082625;28;20197;-61
2022/09/01 06:08:23;;;;;;;9.63;8.73;;;15.40;95.00;;;;;;5080295;28;20189;-61
2022/09/01 06:10:50;;;;;;;10.33;9.40;;;15.50;95.00;;;;;;5079940;28;20207;-61
2022/09/01 06:13:20;;;;;;;10.63;9.73;;;15.50;95.00;;;;;;5061429;28;20193;-61
2022/09/01 06:15:48;;;;;;;8.33;7.63;;;15.60;95.00;;;;;;5075964;28;20221;-61
2022/09/01 06:18:16;;;;;;;9.73;8.40;;;15.50;95.00;;;;;;5058848;28;20194;-61
2022/09/01 06:20:44;;;;;;;10.60;9.60;;;15.60;95.00;;;;;;5074626;28;20189;-61
2022/09/01 06:23:14;;;;;;;10.13;9.23;;;15.60;95.20;;;;;;5075491;28;20185;-60
2022/09/01 06:25:42;;;;;;;10.40;9.40;;;15.70;95.30;;;;;;5065086;28;20288;-61
2022/09/01 06:28:10;;;;;;;11.67;9.80;;;15.70;95.30;;;;;;5093358;28;20220;-61
2022/09/01 06:30:37;;;;;;;10.20;9.20;;;15.80;95.30;;;;;;5079103;28;20261;-61
2022/09/01 06:33:08;;;;;;;10.53;9.63;;;15.80;95.30;;;;;;5062939;28;20217;-61
2022/09/01 06:35:34;;;;;;;10.17;9.27;;;15.80;95.30;;;;;;5087400;28;20250;-61
2022/09/01 06:38:01;;;;;;;10.60;9.60;;;15.80;95.40;;;;;;5075792;28;20190;-61
2022/09/01 06:40:27;;;;;;;11.33;9.60;;;15.80;95.40;;;;;;5062930;28;20217;-62
2022/09/01 06:42:53;;;;;;;9.27;8.27;;;16.00;95.50;;;;;;5078802;28;20192;-62
2022/09/01 06:45:22;;;;;;;9.10;8.30;;;16.00;95.40;;;;;;5080376;28;20185;-62
2022/09/01 06:47:50;;;;;;;9.50;8.70;;;16.00;95.40;;;;;;5094265;28;20185;-61
2022/09/01 06:50:20;;;;;;;9.77;8.60;;;16.00;95.40;;;;;;5078830;28;20197;-61
2022/09/01 06:52:48;;;;;;;10.17;9.27;;;16.10;95.40;;;;;;5095369;28;20196;-59
2022/09/01 06:55:15;;;;;;;9.37;8.57;;;16.10;95.40;;;;;;5095677;28;20212;-59
2022/09/01 06:57:47;;;;;;;9.40;8.60;;;16.20;95.40;;;;;;5094279;28;20191;-61
2022/09/01 07:00:19;;;;;;;9.37;8.50;;;16.20;95.40;;;;;;5096921;28;20231;-60
2022/09/01 07:02:54;;;;;;;10.47;8.57;;;16.20;95.40;;;;;;5096904;28;20216;-60
2022/09/01 07:05:20;;;;;;;10.20;9.20;;;16.20;95.50;;;;;;5091574;28;20187;-60
2022/09/01 07:07:53;;;;;;;9.30;8.50;;;16.30;95.50;;;;;;5096187;28;20188;-60
2022/09/01 07:10:21;;;;;;;6.07;5.57;;;16.30;95.50;;;;;;5096539;28;20189;-60
2022/09/01 07:12:58;;;;;;;4.23;3.90;;;16.00;92.30;;;;;;5089238;28;20188;-60
2022/09/01 07:15:24;;;;;;;4.50;3.80;;;15.80;87.20;;;;;;5095987;28;20208;-60
2022/09/01 07:17:55;;;;;;;4.10;3.80;;;15.60;87.20;;;;;;5079624;28;20218;-60
2022/09/01 07:20:27;;;;;;;5.53;5.03;;;15.50;88.10;;;;;;5088348;28;20188;-60
2022/09/01 07:22:56;;;;;;;5.60;4.03;;;15.40;90.10;;;;;;5085183;28;20184;-60
2022/09/01 07:25:22;;;;;;;6.73;4.80;;;15.40;88.00;;;;;;5096462;28;20192;-60
2022/09/01 07:27:49;;;;;;;4.40;4.10;;;15.40;89.30;;;;;;5061626;28;20271;-60
2022/09/01 07:30:16;;;;;;;5.27;4.50;;;15.40;89.70;;;;;;5093594;28;20200;-60
2022/09/01 07:32:43;;;;;;;5.73;5.13;;;15.40;87.70;;;;;;5088617;27;20198;-60
2022/09/01 07:35:10;;;;;;;4.87;4.37;;;15.40;90.00;;;;;;5085669;28;20212;-60
2022/09/01 07:37:36;;;;;;;6.00;5.50;;;15.40;90.10;;;;;;5094764;28;20185;-60
2022/09/01 07:40:08;;;;;;;4.30;4.00;;;15.50;91.60;;;;;;5091224;28;20265;-60
2022/09/01 07:42:35;;;;;;;4.80;3.27;;;15.50;90.00;;;;;;5089025;28;20209;-60
2022/09/01 07:45:07;;;;;;;4.17;3.13;;;15.40;88.00;;;;;;5074791;28;20189;-60
2022/09/01 07:47:35;;;;;;;4.27;3.87;;;15.30;84.60;;;;;;5073389;28;20188;-60
2022/09/01 07:50:07;;;;;;;4.90;4.50;;;15.30;88.00;;;;;;5100138;28;20200;-60
2022/09/01 07:52:35;;;;;;;4.57;4.17;;;15.20;89.90;;;;;;5078179;28;20195;-60
2022/09/01 07:55:02;;;;;;;4.97;4.40;;;15.30;90.40;;;;;;5058641;28;20209;-60
2022/09/01 07:57:28;;;;;;;4.83;4.37;;;15.30;91.20;;;;;;5074002;28;20193;-60
2022/09/01 07:59:54;;;;;;;4.80;4.30;;;15.30;91.80;;;;;;5067401;28;20200;-60
2022/09/01 08:02:21;;;;;;;4.40;4.00;;;15.30;91.90;;;;;;5061851;28;20188;-60
2022/09/01 08:04:47;;;;;;;6.07;4.83;;;15.30;89.60;;;;;;5077847;28;20208;-59
2022/09/01 08:07:15;;;;;;;5.20;4.80;;;15.40;91.30;;;;;;5098011;28;20218;-59
2022/09/01 08:09:41;;;;;;;5.80;5.17;;;15.50;92.00;;;;;;5095030;28;20185;-59
2022/09/01 08:12:07;;;;;;;5.57;5.13;;;15.50;92.60;;;;;;5085331;28;20188;-59
2022/09/01 08:14:33;;;;;;;5.93;5.43;;;15.70;92.70;;;;;;5078137;27;20204;-59
2022/09/01 08:16:59;;;;;;;6.20;5.60;;;15.80;93.00;;;;;;5096265;27;20199;-60
2022/09/01 08:19:25;;;;;;;6.00;5.50;;;15.80;93.20;;;;;;5091830;28;20408;-60
2022/09/01 08:21:50;;;;;;;6.20;5.60;;;15.90;93.40;;;;;;5062403;28;20192;-60
2022/09/01 08:24:16;;;;;;;5.80;5.40;;;16.00;93.60;;;;;;5093220;28;20196;-59
2022/09/01 08:26:41;;;;;;;6.33;5.83;;;16.10;93.70;;;;;;5077924;28;20228;-59
2022/09/01 08:29:08;;;;;;;6.33;5.57;;;16.10;93.80;;;;;;5097257;27;20188;-60
2022/09/01 08:31:34;;;;;;;6.43;5.83;;;16.10;94.00;;;;;;5089129;28;20200;-60
2022/09/01 08:34:04;;;;;;;6.87;6.27;;;16.20;94.00;;;;;;5070090;28;20205;-61
2022/09/01 08:36:30;;;;;;;6.40;5.80;;;16.20;94.10;;;;;;5077779;28;20234;-61
2022/09/01 08:38:56;;;;;;;7.57;6.20;;;16.30;94.20;;;;;;5085312;28;20234;-61
2022/09/01 08:41:42;;;;;;;7.17;6.57;;;16.30;94.30;;;;;;5086111;28;20193;-59
2022/09/01 08:44:26;;;;;;;6.83;6.13;;;16.30;94.40;;;;;;5080861;28;20185;-60
2022/09/01 08:47:04;;;;;;;7.20;6.60;;;16.30;94.40;;;;;;5082002;28;20184;-60
2022/09/01 08:49:30;;;;;;;6.33;5.73;;;16.30;94.40;;;;;;5090895;28;20199;-60
2022/09/01 08:52:05;;;;;;;6.70;6.00;;;16.40;94.50;;;;;;5084943;28;20212;-60
2022/09/01 08:54:48;;;;;;;7.33;6.63;;;16.50;94.60;;;;;;5094961;28;20292;-60
2022/09/01 08:57:22;;;;;;;6.40;5.90;;;16.50;94.60;;;;;;5094686;28;20176;-60
2022/09/01 08:59:48;;;;;;;6.20;5.60;;;16.50;94.60;;;;;;5095455;28;20288;-60
2022/09/01 09:02:33;;;;;;;6.93;6.33;;;16.60;94.70;;;;;;5109246;28;20256;-60
2022/09/01 09:05:06;;;;;;;5.80;5.27;;;16.60;94.80;;;;;;5095262;28;20191;-60
2022/09/01 09:07:44;;;;;;;4.47;4.03;;;16.70;94.40;;;;;;5109173;28;20256;-60
2022/09/01 09:10:28;;;;;;;3.77;3.30;;;16.60;93.50;;;;;;5087347;28;20191;-61
2022/09/01 09:12:57;;;;;;;4.10;3.70;;;16.50;90.00;;;;;;5091622;28;20184;-61
2022/09/01 09:15:53;;;;;;;3.70;3.40;;;16.50;90.80;;;;;;5106305;28;20295;-61
2022/09/01 09:18:47;;;;;;;4.80;3.90;;;16.50;90.70;;;;;;5092438;28;20246;-60
2022/09/01 09:21:21;;;;;;;6.23;3.90;;;16.40;90.40;;;;;;5098673;28;20191;-60
2022/09/01 09:24:02;;;;;;;4.77;4.37;;;16.40;90.80;;;;;;5097357;28;20180;-60
2022/09/01 09:26:30;;;;;;;2.67;2.47;;;16.40;90.90;;;;;;5098103;28;20271;-60
2022/09/01 09:28:55;;;;;;;2.50;2.30;;;16.30;84.90;;;;;;5082030;28;20193;-59
2022/09/01 09:31:47;;;;;;;3.40;3.10;;;16.30;82.10;;;;;;5089427;28;20191;-59
2022/09/01 09:34:31;;;;;;;3.80;3.07;;;16.30;86.60;;;;;;5093649;28;20212;-59
2022/09/01 09:37:00;;;;;;;2.93;2.73;;;16.40;85.40;;;;;;5097472;28;20168;-58
2022/09/01 09:39:27;;;;;;;4.90;3.53;;;16.40;84.60;;;;;;5098862;28;20184;-58
2022/09/01 09:42:09;;;;;;;2.90;2.60;;;16.60;84.80;;;;;;5079546;28;20254;-58
2022/09/01 09:44:50;;;;;;;3.40;2.80;;;16.70;79.80;;;;;;5097715;28;20266;-58
2022/09/01 09:47:36;;;;;;;2.80;2.60;;;16.80;83.30;;;;;;5094185;28;20210;-58
2022/09/01 09:50:14;;;;;;;3.00;2.60;;;16.80;81.50;;;;;;5096005;28;20187;-59
2022/09/01 09:52:40;;;;;;;3.87;2.93;;;16.80;80.60;;;;;;5114547;28;20180;-59
2022/09/01 09:55:17;;;;;;;3.53;2.53;;;16.80;83.70;;;;;;5062879;28;20208;-59
2022/09/01 09:57:43;;;;;;;3.20;2.90;;;16.80;85.10;;;;;;5097011;28;20172;-59
2022/09/01 10:00:33;;;;;;;2.40;1.90;;;16.80;86.80;;;;;;5065014;28;20192;-59
2022/09/01 10:03:12;;;;;;;2.73;2.53;;;17.00;78.50;;;;;;5096876;28;20184;-60
2022/09/01 10:05:55;;;;;;;2.57;2.37;;;17.10;82.60;;;;;;5082025;28;20259;-59
2022/09/01 10:08:29;;;;;;;2.70;2.43;;;17.10;83.10;;;;;;5096796;28;20189;-59
2022/09/01 10:10:54;;;;;;;2.63;1.90;;;17.20;83.10;;;;;;5096805;28;20192;-59
2022/09/01 10:13:24;;;;;;;4.77;2.50;;;17.10;80.70;;;;;;5066883;28;20197;-59
2022/09/01 10:15:56;;;;;;;2.63;2.43;;;17.20;83.70;;;;;;5099024;27;20208;-59
2022/09/01 10:18:28;;;;;;;3.20;2.23;;;17.30;86.20;;;;;;5093542;28;20185;-59
2022/09/01 10:21:06;;;;;;;2.37;2.20;;;17.40;85.80;;;;;;5095052;28;20176;-59
2022/09/01 10:23:35;;;;;;;2.97;2.17;;;17.60;85.20;;;;;;5095229;28;20206;-59
2022/09/01 10:26:08;;;;;;;1.70;1.60;;;17.70;87.10;;;;;;5106541;28;20270;-59
2022/09/01 10:28:42;;;;;;;2.33;2.10;;;17.70;79.70;;;;;;5085435;28;20220;-59
2022/09/01 10:31:09;;;;;;;2.37;2.17;;;17.70;83.20;;;;;;5096372;28;20180;-58
2022/09/01 10:33:35;;;;;;;1.93;1.80;;;17.80;85.10;;;;;;5063544;28;20180;-58
2022/09/01 10:36:01;;;;;;;2.57;2.37;;;17.80;86.50;;;;;;5062093;27;20217;-58
2022/09/01 10:38:28;;;;;;;2.60;2.40;;;17.80;82.90;;;;;;5097424;28;20172;-58
2022/09/01 10:41:06;;;;;;;2.87;2.50;;;17.80;84.40;;;;;;5094574;28;20222;-58
2022/09/01 10:43:37;;;;;;;1.73;1.50;;;17.90;84.70;;;;;;5096736;28;20208;-58
2022/09/01 10:46:21;;;;;;;1.73;1.63;;;17.90;80.70;;;;;;5096587;28;20177;-58
2022/09/01 10:48:52;;;;;;;2.03;1.90;;;17.80;81.20;;;;;;5082783;28;20223;-58
2022/09/01 10:51:18;;;;;;;2.00;1.90;;;17.90;83.50;;;;;;5099500;28;20213;-58
2022/09/01 10:53:51;;;;;;;2.80;2.30;;;18.00;81.10;;;;;;5096591;28;20239;-58
2022/09/01 10:56:26;;;;;;;2.80;1.80;;;18.10;83.70;;;;;;5103768;28;20184;-58
2022/09/01 10:59:13;;;;;;;2.37;2.00;;;18.20;83.40;;;;;;5099429;28;20184;-58
2022/09/01 11:01:39;;;;;;;1.97;1.50;;;18.20;85.00;;;;;;5096788;28;20177;-58
2022/09/01 11:04:07;;;;;;;2.40;1.47;;;18.30;71.90;;;;;;5084987;28;20193;-58
2022/09/01 11:06:32;;;;;;;2.50;1.60;;;18.30;75.50;;;;;;5079627;28;20203;-58
2022/09/01 11:09:04;;;;;;;2.60;1.50;;;18.30;75.70;;;;;;5093436;28;20180;-58
2022/09/01 11:11:48;;;;;;;3.10;1.70;;;18.20;70.80;;;;;;5091905;28;20191;-58
2022/09/01 11:14:34;;;;;;;2.57;1.70;;;18.20;76.50;;;;;;5096337;28;20207;-58
2022/09/01 11:17:11;;;;;;;3.93;1.40;;;18.00;76.10;;;;;;5081109;28;20177;-59
2022/09/01 11:19:38;;;;;;;2.53;1.40;;;18.00;74.50;;;;;;5103610;28;20180;-58
2022/09/01 11:22:23;;;;;;;1.97;1.80;;;18.00;75.30;;;;;;5094268;28;20298;-59
2022/09/01 11:24:51;;;;;;;1.93;1.53;;;18.10;77.80;;;;;;5092450;28;20183;-59
2022/09/01 11:27:48;;;;;;;2.10;1.90;;;18.10;80.80;;;;;;5102520;28;20265;-59
2022/09/01 11:30:22;;;;;;;2.57;1.50;;;18.20;79.20;;;;;;5109278;28;20190;-59
2022/09/01 11:32:56;;;;;;;2.47;2.20;;;18.20;78.80;;;;;;5094192;28;20184;-59
2022/09/01 11:35:25;;;;;;;2.37;2.17;;;18.30;81.70;;;;;;5095148;28;20295;-60
2022/09/01 11:37:56;;;;;;;3.23;2.47;;;18.30;83.10;;;;;;5093844;28;20200;-59
2022/09/01 11:40:28;;;;;;;2.90;2.70;;;18.30;83.50;;;;;;5101727;28;20227;-59
2022/09/01 11:42:57;;;;;;;3.03;2.77;;;18.40;84.70;;;;;;5094180;28;20168;-59
2022/09/01 11:45:31;;;;;;;3.50;3.20;;;18.30;85.40;;;;;;5094956;28;20187;-59
2022/09/01 11:48:02;;;;;;;3.17;2.87;;;18.30;85.60;;;;;;5108885;28;20238;-59
2022/09/01 11:50:31;;;;;;;3.57;3.23;;;18.40;86.80;;;;;;5096829;28;20184;-59
2022/09/01 11:53:04;;;;;;;3.53;3.27;;;18.40;87.00;;;;;;5107798;28;20184;-59
2022/09/01 11:55:35;;;;;;;5.20;3.50;;;18.30;87.30;;;;;;5111394;28;20292;-59
2022/09/01 11:58:02;;;;;;;6.30;3.33;;;18.40;87.30;;;;;;5092771;28;20197;-59
2022/09/01 12:00:39;;;;;;;3.30;3.00;;;18.40;86.90;;;;;;5095678;28;20176;-59
2022/09/01 12:03:28;;;;;;;3.53;3.23;;;18.50;86.90;;;;;;5111935;27;20172;-59
2022/09/01 12:06:06;;;;;;;5.63;3.20;;;18.70;86.00;;;;;;5095213;28;20184;-59
2022/09/01 12:08:37;;;;;;;3.73;3.13;;;18.90;83.20;;;;;;5112573;28;20212;-59
2022/09/01 12:11:06;;;;;;;3.27;3.00;;;19.30;82.90;;;;;;5097024;28;20192;-59
2022/09/01 12:13:32;;;;;;;3.17;2.97;;;19.50;82.90;;;;;;5106569;28;20184;-59
2022/09/01 12:16:04;;;;;;;4.03;3.63;;;19.50;78.50;;;;;;5076222;28;20200;-59
2022/09/01 12:18:34;;;;;;;3.23;2.93;;;19.50;80.40;;;;;;5098052;28;20192;-59
2022/09/01 12:21:02;;;;;;;2.87;2.63;;;19.50;82.40;;;;;;5090605;28;20242;-59
2022/09/01 12:23:30;;;;;;;4.07;3.00;;;19.40;83.80;;;;;;5105439;28;20267;-59
2022/09/01 12:26:24;;;;;;;3.33;3.03;;;19.40;84.80;;;;;;5099142;27;20191;-59
2022/09/01 12:28:49;;;;;;;2.93;2.73;;;19.40;84.90;;;;;;5098953;27;20248;-59
2022/09/01 12:31:19;;;;;;;3.33;2.70;;;19.30;85.70;;;;;;5074902;28;20207;-59
2022/09/01 12:33:46;;;;;;;2.63;2.43;;;19.20;82.60;;;;;;5097221;28;20233;-59
2022/09/01 12:36:21;;;;;;;3.50;2.90;;;19.10;84.40;;;;;;5095666;28;20208;-59
2022/09/01 12:38:47;;;;;;;3.13;2.90;;;19.00;83.90;;;;;;5091646;28;20187;-59
2022/09/01 12:41:38;;;;;;;3.23;2.93;;;19.00;85.40;;;;;;5092273;28;20184;-59
2022/09/01 12:44:28;;;;;;;5.27;2.97;;;18.90;85.20;;;;;;5091809;28;20263;-59
2022/09/01 12:46:55;;;;;;;3.57;3.23;;;18.80;84.60;;;;;;5093010;28;20176;-59
2022/09/01 12:49:33;;;;;;;3.93;2.93;;;18.70;86.40;;;;;;5108229;28;20199;-59
2022/09/01 12:52:21;;;;;;;4.10;3.57;;;18.70;87.10;;;;;;5099655;28;20184;-59
2022/09/01 12:54:58;;;;;;;4.70;3.10;;;18.70;87.80;;;;;;5105148;28;20196;-59
2022/09/01 12:57:32;;;;;;;3.53;3.13;;;18.70;88.20;;;;;;5088309;28;20179;-59
2022/09/01 13:00:26;;;;;;;2.87;2.67;;;18.70;88.70;;;;;;5091696;28;20204;-60
2022/09/01 13:03:01;;;;;;;3.47;3.17;;;18.60;88.90;;;;;;5090779;28;20210;-59
2022/09/01 13:05:39;;;;;;;3.23;3.00;;;18.70;89.20;;;;;;5091946;28;20232;-60
2022/09/01 13:08:10;;;;;;;3.10;2.90;;;18.70;89.50;;;;;;5093894;28;20188;-60